sensor_id;sensor_type;location;lat;lon;timestamp;P1;durP1;ratioP1;P2;durP2;ratioP2
40116;SDS011;25829;50.228;18.936;2023-05-07T00:02:21;7.28;;;5.60;;
40116;SDS011;25829;50.228;18.936;2023-05-07T00:05:24;6.90;;;5.47;;
40116;SDS011;25829;50.228;18.936;2023-05-07T00:08:30;7.07;;;5.27;;
40116;SDS011;25829;50.228;18.936;2023-05-07T00:11:34;6.37;;;5.57;;
40116;SDS011;25829;50.228;18.936;2023-05-07T00:14:38;8.48;;;6.18;;
40116;SDS011;25829;50.228;18.936;2023-05-07T00:17:43;7.55;;;6.15;;
40116;SDS011;25829;50.228;18.936;2023-05-07T00:20:46;8.13;;;6.35;;
40116;SDS011;25829;50.228;18.936;2023-05-07T00:23:49;8.70;;;6.15;;
40116;SDS011;25829;50.228;18.936;2023-05-07T00:26:50;9.07;;;5.80;;
40116;SDS011;25829;50.228;18.936;2023-05-07T00:29:51;6.75;;;5.80;;
40116;SDS011;25829;50.228;18.936;2023-05-07T00:32:52;7.20;;;6.00;;
40116;SDS011;25829;50.228;18.936;2023-05-07T00:35:53;9.48;;;7.47;;
40116;SDS011;25829;50.228;18.936;2023-05-07T00:38:59;11.30;;;8.20;;
40116;SDS011;25829;50.228;18.936;2023-05-07T00:42:02;13.40;;;9.00;;
40116;SDS011;25829;50.228;18.936;2023-05-07T00:45:04;16.80;;;10.93;;
40116;SDS011;25829;50.228;18.936;2023-05-07T00:48:05;18.23;;;10.77;;
40116;SDS011;25829;50.228;18.936;2023-05-07T00:51:06;12.15;;;8.98;;
40116;SDS011;25829;50.228;18.936;2023-05-07T00:54:07;14.27;;;9.70;;
40116;SDS011;25829;50.228;18.936;2023-05-07T00:57:09;13.40;;;9.20;;
40116;SDS011;25829;50.228;18.936;2023-05-07T01:00:16;15.23;;;10.07;;
40116;SDS011;25829;50.228;18.936;2023-05-07T01:03:18;14.13;;;9.48;;
40116;SDS011;25829;50.228;18.936;2023-05-07T01:06:21;15.27;;;9.70;;
40116;SDS011;25829;50.228;18.936;2023-05-07T01:09:25;18.93;;;10.53;;
40116;SDS011;25829;50.228;18.936;2023-05-07T01:12:30;15.88;;;10.32;;
40116;SDS011;25829;50.228;18.936;2023-05-07T01:15:45;14.50;;;10.90;;
40116;SDS011;25829;50.228;18.936;2023-05-07T01:18:46;18.00;;;11.67;;
40116;SDS011;25829;50.228;18.936;2023-05-07T01:21:49;14.57;;;10.88;;
40116;SDS011;25829;50.228;18.936;2023-05-07T01:24:53;15.63;;;10.47;;
40116;SDS011;25829;50.228;18.936;2023-05-07T01:28:07;13.17;;;9.13;;
40116;SDS011;25829;50.228;18.936;2023-05-07T01:31:11;14.13;;;9.80;;
40116;SDS011;25829;50.228;18.936;2023-05-07T01:34:14;16.30;;;8.87;;
40116;SDS011;25829;50.228;18.936;2023-05-07T01:37:17;11.93;;;8.30;;
40116;SDS011;25829;50.228;18.936;2023-05-07T01:40:18;11.57;;;7.73;;
40116;SDS011;25829;50.228;18.936;2023-05-07T01:43:25;10.63;;;7.37;;
40116;SDS011;25829;50.228;18.936;2023-05-07T01:46:31;13.50;;;8.23;;
40116;SDS011;25829;50.228;18.936;2023-05-07T01:49:33;8.60;;;7.37;;
40116;SDS011;25829;50.228;18.936;2023-05-07T01:56:17;10.87;;;6.87;;
40116;SDS011;25829;50.228;18.936;2023-05-07T01:59:21;8.43;;;7.13;;
40116;SDS011;25829;50.228;18.936;2023-05-07T02:02:22;8.50;;;6.90;;
40116;SDS011;25829;50.228;18.936;2023-05-07T02:09:01;9.27;;;7.20;;
40116;SDS011;25829;50.228;18.936;2023-05-07T02:12:02;9.50;;;7.07;;
40116;SDS011;25829;50.228;18.936;2023-05-07T02:15:09;7.60;;;5.90;;
40116;SDS011;25829;50.228;18.936;2023-05-07T02:18:17;8.90;;;6.93;;
40116;SDS011;25829;50.228;18.936;2023-05-07T02:21:24;9.07;;;6.67;;
40116;SDS011;25829;50.228;18.936;2023-05-07T02:24:25;7.97;;;6.53;;
40116;SDS011;25829;50.228;18.936;2023-05-07T02:27:27;8.77;;;6.57;;
40116;SDS011;25829;50.228;18.936;2023-05-07T02:30:32;8.70;;;6.40;;
40116;SDS011;25829;50.228;18.936;2023-05-07T02:33:33;6.23;;;5.67;;
40116;SDS011;25829;50.228;18.936;2023-05-07T02:36:41;7.23;;;5.53;;
40116;SDS011;25829;50.228;18.936;2023-05-07T02:39:47;7.50;;;5.97;;
40116;SDS011;25829;50.228;18.936;2023-05-07T02:42:48;7.20;;;5.63;;
40116;SDS011;25829;50.228;18.936;2023-05-07T02:45:49;7.87;;;5.60;;
40116;SDS011;25829;50.228;18.936;2023-05-07T02:49:03;6.43;;;5.73;;
40116;SDS011;25829;50.228;18.936;2023-05-07T02:52:13;8.37;;;6.00;;
40116;SDS011;25829;50.228;18.936;2023-05-07T02:55:14;10.07;;;6.10;;
40116;SDS011;25829;50.228;18.936;2023-05-07T02:58:15;5.10;;;4.53;;
40116;SDS011;25829;50.228;18.936;2023-05-07T03:01:16;7.63;;;5.90;;
40116;SDS011;25829;50.228;18.936;2023-05-07T03:04:43;7.20;;;4.73;;
40116;SDS011;25829;50.228;18.936;2023-05-07T03:07:47;7.77;;;6.10;;
40116;SDS011;25829;50.228;18.936;2023-05-07T03:10:49;6.77;;;5.47;;
40116;SDS011;25829;50.228;18.936;2023-05-07T03:13:49;6.37;;;5.20;;
40116;SDS011;25829;50.228;18.936;2023-05-07T03:16:55;6.97;;;5.50;;
40116;SDS011;25829;50.228;18.936;2023-05-07T03:19:56;6.53;;;5.67;;
40116;SDS011;25829;50.228;18.936;2023-05-07T03:22:57;6.53;;;5.20;;
40116;SDS011;25829;50.228;18.936;2023-05-07T03:25:58;7.57;;;4.60;;
40116;SDS011;25829;50.228;18.936;2023-05-07T03:29:06;4.37;;;3.97;;
40116;SDS011;25829;50.228;18.936;2023-05-07T03:32:07;3.77;;;3.47;;
40116;SDS011;25829;50.228;18.936;2023-05-07T03:35:16;3.90;;;3.23;;
40116;SDS011;25829;50.228;18.936;2023-05-07T03:38:17;3.80;;;2.97;;
40116;SDS011;25829;50.228;18.936;2023-05-07T03:41:18;4.00;;;3.23;;
40116;SDS011;25829;50.228;18.936;2023-05-07T03:44:31;4.90;;;4.03;;
40116;SDS011;25829;50.228;18.936;2023-05-07T03:47:35;4.10;;;3.67;;
40116;SDS011;25829;50.228;18.936;2023-05-07T03:50:37;4.67;;;3.40;;
40116;SDS011;25829;50.228;18.936;2023-05-07T03:53:38;4.80;;;4.13;;
40116;SDS011;25829;50.228;18.936;2023-05-07T03:56:39;4.73;;;4.07;;
40116;SDS011;25829;50.228;18.936;2023-05-07T03:59:43;5.27;;;3.30;;
40116;SDS011;25829;50.228;18.936;2023-05-07T04:02:44;2.90;;;2.70;;
40116;SDS011;25829;50.228;18.936;2023-05-07T04:05:45;3.57;;;2.83;;
40116;SDS011;25829;50.228;18.936;2023-05-07T04:08:46;3.07;;;2.80;;
40116;SDS011;25829;50.228;18.936;2023-05-07T04:11:56;3.43;;;3.00;;
40116;SDS011;25829;50.228;18.936;2023-05-07T04:15:04;2.80;;;2.27;;
40116;SDS011;25829;50.228;18.936;2023-05-07T04:18:08;3.37;;;2.30;;
40116;SDS011;25829;50.228;18.936;2023-05-07T04:21:20;3.30;;;2.33;;
40116;SDS011;25829;50.228;18.936;2023-05-07T04:24:24;3.47;;;2.40;;
40116;SDS011;25829;50.228;18.936;2023-05-07T04:27:25;2.23;;;2.03;;
40116;SDS011;25829;50.228;18.936;2023-05-07T04:30:27;4.50;;;2.50;;
40116;SDS011;25829;50.228;18.936;2023-05-07T04:33:28;2.73;;;2.50;;
40116;SDS011;25829;50.228;18.936;2023-05-07T04:36:31;2.70;;;2.50;;
40116;SDS011;25829;50.228;18.936;2023-05-07T04:43:09;2.20;;;2.00;;
40116;SDS011;25829;50.228;18.936;2023-05-07T04:46:20;4.07;;;2.60;;
40116;SDS011;25829;50.228;18.936;2023-05-07T04:49:22;2.90;;;2.60;;
40116;SDS011;25829;50.228;18.936;2023-05-07T04:52:25;3.40;;;2.50;;
40116;SDS011;25829;50.228;18.936;2023-05-07T04:55:26;3.90;;;2.40;;
40116;SDS011;25829;50.228;18.936;2023-05-07T04:58:27;3.50;;;2.30;;
40116;SDS011;25829;50.228;18.936;2023-05-07T05:01:37;2.87;;;2.40;;
40116;SDS011;25829;50.228;18.936;2023-05-07T05:04:39;3.43;;;1.90;;
40116;SDS011;25829;50.228;18.936;2023-05-07T05:07:41;3.50;;;2.00;;
40116;SDS011;25829;50.228;18.936;2023-05-07T05:10:45;2.13;;;1.93;;
40116;SDS011;25829;50.228;18.936;2023-05-07T05:13:50;2.33;;;2.13;;
40116;SDS011;25829;50.228;18.936;2023-05-07T05:16:54;3.60;;;2.10;;
40116;SDS011;25829;50.228;18.936;2023-05-07T05:19:55;2.83;;;2.20;;
40116;SDS011;25829;50.228;18.936;2023-05-07T05:23:11;4.43;;;2.53;;
40116;SDS011;25829;50.228;18.936;2023-05-07T05:26:17;2.73;;;2.00;;
40116;SDS011;25829;50.228;18.936;2023-05-07T05:29:19;3.70;;;2.50;;
40116;SDS011;25829;50.228;18.936;2023-05-07T05:32:20;3.60;;;2.20;;
40116;SDS011;25829;50.228;18.936;2023-05-07T05:35:22;2.57;;;2.10;;
40116;SDS011;25829;50.228;18.936;2023-05-07T05:38:23;2.37;;;2.13;;
40116;SDS011;25829;50.228;18.936;2023-05-07T05:41:27;2.47;;;2.23;;
40116;SDS011;25829;50.228;18.936;2023-05-07T05:44:29;2.50;;;2.30;;
40116;SDS011;25829;50.228;18.936;2023-05-07T05:47:30;2.30;;;2.10;;
40116;SDS011;25829;50.228;18.936;2023-05-07T05:50:41;2.13;;;1.70;;
40116;SDS011;25829;50.228;18.936;2023-05-07T05:57:06;2.73;;;1.70;;
40116;SDS011;25829;50.228;18.936;2023-05-07T06:00:14;2.57;;;2.37;;
40116;SDS011;25829;50.228;18.936;2023-05-07T06:03:35;2.83;;;2.17;;
40116;SDS011;25829;50.228;18.936;2023-05-07T06:06:58;2.33;;;2.10;;
40116;SDS011;25829;50.228;18.936;2023-05-07T06:10:00;3.07;;;2.40;;
40116;SDS011;25829;50.228;18.936;2023-05-07T06:13:03;2.87;;;2.10;;
40116;SDS011;25829;50.228;18.936;2023-05-07T06:16:06;2.70;;;2.00;;
40116;SDS011;25829;50.228;18.936;2023-05-07T06:19:09;2.83;;;2.23;;
40116;SDS011;25829;50.228;18.936;2023-05-07T06:22:12;3.07;;;1.97;;
40116;SDS011;25829;50.228;18.936;2023-05-07T06:25:13;3.70;;;2.13;;
40116;SDS011;25829;50.228;18.936;2023-05-07T06:28:17;2.10;;;1.90;;
40116;SDS011;25829;50.228;18.936;2023-05-07T06:31:18;3.53;;;2.00;;
40116;SDS011;25829;50.228;18.936;2023-05-07T06:34:34;2.30;;;1.90;;
40116;SDS011;25829;50.228;18.936;2023-05-07T06:37:35;2.70;;;1.90;;
40116;SDS011;25829;50.228;18.936;2023-05-07T06:40:40;2.30;;;2.10;;
40116;SDS011;25829;50.228;18.936;2023-05-07T06:43:41;2.63;;;2.23;;
40116;SDS011;25829;50.228;18.936;2023-05-07T06:47:01;2.97;;;2.23;;
40116;SDS011;25829;50.228;18.936;2023-05-07T06:50:22;3.10;;;2.03;;
40116;SDS011;25829;50.228;18.936;2023-05-07T06:53:24;4.40;;;2.23;;
40116;SDS011;25829;50.228;18.936;2023-05-07T06:56:27;3.10;;;2.20;;
40116;SDS011;25829;50.228;18.936;2023-05-07T06:59:29;2.47;;;2.27;;
40116;SDS011;25829;50.228;18.936;2023-05-07T07:02:29;2.33;;;2.00;;
40116;SDS011;25829;50.228;18.936;2023-05-07T07:05:30;2.10;;;1.90;;
40116;SDS011;25829;50.228;18.936;2023-05-07T07:08:33;2.77;;;2.07;;
40116;SDS011;25829;50.228;18.936;2023-05-07T07:11:35;2.97;;;2.17;;
40116;SDS011;25829;50.228;18.936;2023-05-07T07:14:36;2.63;;;2.30;;
40116;SDS011;25829;50.228;18.936;2023-05-07T07:17:42;3.50;;;2.30;;
40116;SDS011;25829;50.228;18.936;2023-05-07T07:20:46;3.33;;;2.83;;
40116;SDS011;25829;50.228;18.936;2023-05-07T07:23:47;2.20;;;2.00;;
40116;SDS011;25829;50.228;18.936;2023-05-07T07:26:51;3.57;;;3.27;;
40116;SDS011;25829;50.228;18.936;2023-05-07T07:29:56;3.50;;;2.70;;
40116;SDS011;25829;50.228;18.936;2023-05-07T07:32:57;3.20;;;2.17;;
40116;SDS011;25829;50.228;18.936;2023-05-07T07:36:05;8.23;;;3.77;;
40116;SDS011;25829;50.228;18.936;2023-05-07T07:39:07;5.77;;;3.30;;
40116;SDS011;25829;50.228;18.936;2023-05-07T07:42:08;3.77;;;2.77;;
40116;SDS011;25829;50.228;18.936;2023-05-07T07:45:09;4.63;;;2.50;;
40116;SDS011;25829;50.228;18.936;2023-05-07T07:48:15;3.30;;;2.70;;
40116;SDS011;25829;50.228;18.936;2023-05-07T07:51:17;2.87;;;2.40;;
40116;SDS011;25829;50.228;18.936;2023-05-07T07:54:21;1.90;;;1.70;;
40116;SDS011;25829;50.228;18.936;2023-05-07T07:57:22;2.30;;;2.10;;
40116;SDS011;25829;50.228;18.936;2023-05-07T08:00:23;2.50;;;2.30;;
40116;SDS011;25829;50.228;18.936;2023-05-07T08:03:38;1.70;;;1.50;;
40116;SDS011;25829;50.228;18.936;2023-05-07T08:06:40;2.20;;;1.57;;
40116;SDS011;25829;50.228;18.936;2023-05-07T08:09:43;2.13;;;1.70;;
40116;SDS011;25829;50.228;18.936;2023-05-07T08:12:44;1.90;;;1.70;;
40116;SDS011;25829;50.228;18.936;2023-05-07T08:15:48;1.77;;;1.67;;
40116;SDS011;25829;50.228;18.936;2023-05-07T08:18:50;1.70;;;1.57;;
40116;SDS011;25829;50.228;18.936;2023-05-07T08:21:51;2.33;;;1.53;;
40116;SDS011;25829;50.228;18.936;2023-05-07T08:24:52;1.80;;;1.53;;
40116;SDS011;25829;50.228;18.936;2023-05-07T08:27:54;1.40;;;1.30;;
40116;SDS011;25829;50.228;18.936;2023-05-07T08:30:55;1.70;;;1.57;;
40116;SDS011;25829;50.228;18.936;2023-05-07T08:34:06;1.40;;;1.30;;
40116;SDS011;25829;50.228;18.936;2023-05-07T08:37:09;3.20;;;1.77;;
40116;SDS011;25829;50.228;18.936;2023-05-07T08:40:10;3.30;;;2.30;;
40116;SDS011;25829;50.228;18.936;2023-05-07T08:43:15;1.67;;;1.57;;
40116;SDS011;25829;50.228;18.936;2023-05-07T08:46:21;2.00;;;1.63;;
40116;SDS011;25829;50.228;18.936;2023-05-07T08:49:25;1.90;;;1.80;;
40116;SDS011;25829;50.228;18.936;2023-05-07T08:52:26;2.27;;;2.07;;
40116;SDS011;25829;50.228;18.936;2023-05-07T08:55:35;2.57;;;2.00;;
40116;SDS011;25829;50.228;18.936;2023-05-07T08:58:37;2.30;;;2.10;;
40116;SDS011;25829;50.228;18.936;2023-05-07T09:01:39;2.20;;;2.00;;
40116;SDS011;25829;50.228;18.936;2023-05-07T09:04:43;2.20;;;2.00;;
40116;SDS011;25829;50.228;18.936;2023-05-07T09:07:45;2.10;;;1.90;;
40116;SDS011;25829;50.228;18.936;2023-05-07T09:10:48;2.43;;;2.10;;
40116;SDS011;25829;50.228;18.936;2023-05-07T09:13:55;2.83;;;2.43;;
40116;SDS011;25829;50.228;18.936;2023-05-07T09:17:02;2.53;;;1.93;;
40116;SDS011;25829;50.228;18.936;2023-05-07T09:20:04;3.83;;;2.43;;
40116;SDS011;25829;50.228;18.936;2023-05-07T09:23:07;2.50;;;2.27;;
40116;SDS011;25829;50.228;18.936;2023-05-07T09:26:09;2.87;;;2.60;;
40116;SDS011;25829;50.228;18.936;2023-05-07T09:29:15;2.53;;;2.30;;
40116;SDS011;25829;50.228;18.936;2023-05-07T09:32:20;3.73;;;2.60;;
40116;SDS011;25829;50.228;18.936;2023-05-07T09:35:22;2.97;;;2.67;;
40116;SDS011;25829;50.228;18.936;2023-05-07T09:38:30;3.63;;;2.77;;
40116;SDS011;25829;50.228;18.936;2023-05-07T09:41:46;2.83;;;2.47;;
40116;SDS011;25829;50.228;18.936;2023-05-07T09:44:55;3.90;;;2.50;;
40116;SDS011;25829;50.228;18.936;2023-05-07T09:48:00;2.90;;;2.60;;
40116;SDS011;25829;50.228;18.936;2023-05-07T09:54:47;3.17;;;2.70;;
40116;SDS011;25829;50.228;18.936;2023-05-07T09:57:53;2.90;;;2.60;;
40116;SDS011;25829;50.228;18.936;2023-05-07T10:01:02;2.73;;;2.37;;
40116;SDS011;25829;50.228;18.936;2023-05-07T10:04:16;2.50;;;2.30;;
40116;SDS011;25829;50.228;18.936;2023-05-07T10:07:19;3.60;;;2.27;;
40116;SDS011;25829;50.228;18.936;2023-05-07T10:10:23;3.60;;;2.83;;
40116;SDS011;25829;50.228;18.936;2023-05-07T10:13:25;3.07;;;2.70;;
40116;SDS011;25829;50.228;18.936;2023-05-07T10:16:36;2.97;;;2.67;;
40116;SDS011;25829;50.228;18.936;2023-05-07T10:19:42;3.27;;;2.97;;
40116;SDS011;25829;50.228;18.936;2023-05-07T10:22:47;3.73;;;3.00;;
40116;SDS011;25829;50.228;18.936;2023-05-07T10:26:05;3.20;;;2.77;;
40116;SDS011;25829;50.228;18.936;2023-05-07T10:29:12;3.00;;;2.70;;
40116;SDS011;25829;50.228;18.936;2023-05-07T10:35:42;3.40;;;2.90;;
40116;SDS011;25829;50.228;18.936;2023-05-07T10:38:46;3.90;;;3.00;;
40116;SDS011;25829;50.228;18.936;2023-05-07T10:41:51;3.37;;;2.60;;
40116;SDS011;25829;50.228;18.936;2023-05-07T10:44:52;4.87;;;2.70;;
40116;SDS011;25829;50.228;18.936;2023-05-07T10:48:15;2.67;;;2.47;;
40116;SDS011;25829;50.228;18.936;2023-05-07T10:51:21;4.20;;;3.50;;
40116;SDS011;25829;50.228;18.936;2023-05-07T10:54:27;3.30;;;3.00;;
40116;SDS011;25829;50.228;18.936;2023-05-07T10:57:34;3.30;;;3.00;;
40116;SDS011;25829;50.228;18.936;2023-05-07T11:00:57;3.27;;;2.97;;
40116;SDS011;25829;50.228;18.936;2023-05-07T11:04:14;3.37;;;2.90;;
40116;SDS011;25829;50.228;18.936;2023-05-07T11:07:34;4.10;;;3.10;;
40116;SDS011;25829;50.228;18.936;2023-05-07T11:17:54;2.80;;;2.57;;
40116;SDS011;25829;50.228;18.936;2023-05-07T11:20:58;3.83;;;2.63;;
40116;SDS011;25829;50.228;18.936;2023-05-07T11:24:23;3.43;;;2.60;;
40116;SDS011;25829;50.228;18.936;2023-05-07T11:27:38;3.63;;;3.33;;
40116;SDS011;25829;50.228;18.936;2023-05-07T11:30:39;4.00;;;3.40;;
40116;SDS011;25829;50.228;18.936;2023-05-07T11:33:50;4.77;;;4.20;;
40116;SDS011;25829;50.228;18.936;2023-05-07T11:36:55;7.17;;;5.53;;
40116;SDS011;25829;50.228;18.936;2023-05-07T11:40:12;5.77;;;5.17;;
40116;SDS011;25829;50.228;18.936;2023-05-07T11:43:14;13.27;;;9.30;;
40116;SDS011;25829;50.228;18.936;2023-05-07T11:46:15;6.90;;;5.57;;
40116;SDS011;25829;50.228;18.936;2023-05-07T11:49:17;4.83;;;4.33;;
40116;SDS011;25829;50.228;18.936;2023-05-07T11:52:25;5.10;;;4.60;;
40116;SDS011;25829;50.228;18.936;2023-05-07T11:55:26;4.13;;;3.83;;
40116;SDS011;25829;50.228;18.936;2023-05-07T11:58:26;3.50;;;3.20;;
40116;SDS011;25829;50.228;18.936;2023-05-07T12:01:27;3.80;;;3.50;;
40116;SDS011;25829;50.228;18.936;2023-05-07T12:04:29;3.50;;;3.20;;
40116;SDS011;25829;50.228;18.936;2023-05-07T12:07:32;3.83;;;3.53;;
40116;SDS011;25829;50.228;18.936;2023-05-07T12:10:40;4.07;;;3.67;;
40116;SDS011;25829;50.228;18.936;2023-05-07T12:13:47;4.47;;;3.67;;
40116;SDS011;25829;50.228;18.936;2023-05-07T12:16:48;6.73;;;5.03;;
40116;SDS011;25829;50.228;18.936;2023-05-07T12:19:48;5.93;;;4.10;;
40116;SDS011;25829;50.228;18.936;2023-05-07T12:22:52;6.20;;;4.80;;
40116;SDS011;25829;50.228;18.936;2023-05-07T12:25:57;6.03;;;4.80;;
40116;SDS011;25829;50.228;18.936;2023-05-07T12:29:00;5.43;;;4.93;;
40116;SDS011;25829;50.228;18.936;2023-05-07T12:32:02;3.80;;;3.47;;
40116;SDS011;25829;50.228;18.936;2023-05-07T12:35:03;4.53;;;3.60;;
40116;SDS011;25829;50.228;18.936;2023-05-07T12:38:14;5.00;;;3.57;;
40116;SDS011;25829;50.228;18.936;2023-05-07T12:41:22;5.30;;;4.80;;
40116;SDS011;25829;50.228;18.936;2023-05-07T12:44:33;4.60;;;4.20;;
40116;SDS011;25829;50.228;18.936;2023-05-07T12:47:35;6.27;;;5.07;;
40116;SDS011;25829;50.228;18.936;2023-05-07T12:50:36;6.47;;;5.87;;
40116;SDS011;25829;50.228;18.936;2023-05-07T12:53:40;6.37;;;5.77;;
40116;SDS011;25829;50.228;18.936;2023-05-07T12:56:44;5.53;;;5.03;;
40116;SDS011;25829;50.228;18.936;2023-05-07T12:59:51;5.50;;;4.90;;
40116;SDS011;25829;50.228;18.936;2023-05-07T13:02:58;5.87;;;5.20;;
40116;SDS011;25829;50.228;18.936;2023-05-07T13:05:59;4.97;;;4.10;;
40116;SDS011;25829;50.228;18.936;2023-05-07T13:09:02;4.47;;;3.90;;
40116;SDS011;25829;50.228;18.936;2023-05-07T13:12:03;5.23;;;3.80;;
40116;SDS011;25829;50.228;18.936;2023-05-07T13:15:13;8.27;;;5.17;;
40116;SDS011;25829;50.228;18.936;2023-05-07T13:18:14;4.67;;;3.47;;
40116;SDS011;25829;50.228;18.936;2023-05-07T13:21:15;10.33;;;5.97;;
40116;SDS011;25829;50.228;18.936;2023-05-07T13:24:16;7.43;;;5.17;;
40116;SDS011;25829;50.228;18.936;2023-05-07T13:27:16;4.53;;;3.70;;
40116;SDS011;25829;50.228;18.936;2023-05-07T13:30:19;3.40;;;2.90;;
40116;SDS011;25829;50.228;18.936;2023-05-07T13:33:20;3.23;;;2.70;;
40116;SDS011;25829;50.228;18.936;2023-05-07T13:36:20;3.23;;;2.80;;
40116;SDS011;25829;50.228;18.936;2023-05-07T13:39:24;3.70;;;3.30;;
40116;SDS011;25829;50.228;18.936;2023-05-07T13:42:25;3.90;;;3.37;;
40116;SDS011;25829;50.228;18.936;2023-05-07T13:45:26;5.03;;;3.80;;
40116;SDS011;25829;50.228;18.936;2023-05-07T13:48:30;5.03;;;4.07;;
40116;SDS011;25829;50.228;18.936;2023-05-07T13:51:37;4.30;;;3.90;;
40116;SDS011;25829;50.228;18.936;2023-05-07T13:54:38;4.10;;;3.60;;
40116;SDS011;25829;50.228;18.936;2023-05-07T13:57:39;4.77;;;4.07;;
40116;SDS011;25829;50.228;18.936;2023-05-07T14:00:40;4.50;;;4.10;;
40116;SDS011;25829;50.228;18.936;2023-05-07T14:03:44;7.27;;;5.17;;
40116;SDS011;25829;50.228;18.936;2023-05-07T14:06:45;7.00;;;4.90;;
40116;SDS011;25829;50.228;18.936;2023-05-07T14:09:45;4.80;;;3.83;;
40116;SDS011;25829;50.228;18.936;2023-05-07T14:12:46;4.70;;;4.10;;
40116;SDS011;25829;50.228;18.936;2023-05-07T14:15:48;4.23;;;3.83;;
40116;SDS011;25829;50.228;18.936;2023-05-07T14:18:49;3.90;;;3.50;;
40116;SDS011;25829;50.228;18.936;2023-05-07T14:21:50;4.37;;;3.97;;
40116;SDS011;25829;50.228;18.936;2023-05-07T14:24:51;5.00;;;4.20;;
40116;SDS011;25829;50.228;18.936;2023-05-07T14:27:52;4.97;;;3.30;;
40116;SDS011;25829;50.228;18.936;2023-05-07T14:30:53;4.43;;;3.57;;
40116;SDS011;25829;50.228;18.936;2023-05-07T14:33:54;4.07;;;2.90;;
40116;SDS011;25829;50.228;18.936;2023-05-07T14:36:55;3.77;;;3.30;;
40116;SDS011;25829;50.228;18.936;2023-05-07T14:39:56;7.43;;;4.20;;
40116;SDS011;25829;50.228;18.936;2023-05-07T14:42:56;5.17;;;4.67;;
40116;SDS011;25829;50.228;18.936;2023-05-07T14:45:58;5.90;;;4.97;;
40116;SDS011;25829;50.228;18.936;2023-05-07T14:49:07;6.13;;;4.77;;
40116;SDS011;25829;50.228;18.936;2023-05-07T14:52:19;5.27;;;4.13;;
40116;SDS011;25829;50.228;18.936;2023-05-07T14:55:20;6.27;;;4.63;;
40116;SDS011;25829;50.228;18.936;2023-05-07T14:58:22;5.23;;;4.27;;
40116;SDS011;25829;50.228;18.936;2023-05-07T15:01:22;7.10;;;4.40;;
40116;SDS011;25829;50.228;18.936;2023-05-07T15:04:23;4.63;;;3.87;;
40116;SDS011;25829;50.228;18.936;2023-05-07T15:07:25;4.87;;;3.57;;
40116;SDS011;25829;50.228;18.936;2023-05-07T15:10:27;5.87;;;4.47;;
40116;SDS011;25829;50.228;18.936;2023-05-07T15:13:31;4.70;;;3.93;;
40116;SDS011;25829;50.228;18.936;2023-05-07T15:16:34;4.30;;;3.70;;
40116;SDS011;25829;50.228;18.936;2023-05-07T15:19:36;4.40;;;4.00;;
40116;SDS011;25829;50.228;18.936;2023-05-07T15:22:37;4.10;;;3.40;;
40116;SDS011;25829;50.228;18.936;2023-05-07T15:25:41;6.60;;;3.77;;
40116;SDS011;25829;50.228;18.936;2023-05-07T15:28:41;3.80;;;3.33;;
40116;SDS011;25829;50.228;18.936;2023-05-07T15:31:43;4.37;;;3.80;;
40116;SDS011;25829;50.228;18.936;2023-05-07T15:34:46;5.67;;;4.00;;
40116;SDS011;25829;50.228;18.936;2023-05-07T15:37:50;4.87;;;4.47;;
40116;SDS011;25829;50.228;18.936;2023-05-07T15:40:52;4.53;;;4.10;;
40116;SDS011;25829;50.228;18.936;2023-05-07T15:43:53;7.27;;;4.50;;
40116;SDS011;25829;50.228;18.936;2023-05-07T15:46:54;5.37;;;4.53;;
40116;SDS011;25829;50.228;18.936;2023-05-07T15:50:02;5.50;;;4.70;;
40116;SDS011;25829;50.228;18.936;2023-05-07T15:53:03;8.23;;;6.57;;
40116;SDS011;25829;50.228;18.936;2023-05-07T15:56:05;6.50;;;5.90;;
40116;SDS011;25829;50.228;18.936;2023-05-07T15:59:09;8.63;;;5.73;;
40116;SDS011;25829;50.228;18.936;2023-05-07T16:02:12;6.73;;;6.03;;
40116;SDS011;25829;50.228;18.936;2023-05-07T16:05:13;7.47;;;6.13;;
40116;SDS011;25829;50.228;18.936;2023-05-07T16:08:15;7.33;;;6.03;;
40116;SDS011;25829;50.228;18.936;2023-05-07T16:11:16;6.87;;;5.33;;
40116;SDS011;25829;50.228;18.936;2023-05-07T16:14:16;8.97;;;6.90;;
40116;SDS011;25829;50.228;18.936;2023-05-07T16:17:17;8.27;;;5.83;;
40116;SDS011;25829;50.228;18.936;2023-05-07T16:20:18;6.77;;;5.33;;
40116;SDS011;25829;50.228;18.936;2023-05-07T16:23:21;10.73;;;7.20;;
40116;SDS011;25829;50.228;18.936;2023-05-07T16:26:22;9.00;;;6.20;;
40116;SDS011;25829;50.228;18.936;2023-05-07T16:29:22;9.77;;;5.50;;
40116;SDS011;25829;50.228;18.936;2023-05-07T16:32:29;6.57;;;5.60;;
40116;SDS011;25829;50.228;18.936;2023-05-07T16:35:30;9.87;;;5.70;;
40116;SDS011;25829;50.228;18.936;2023-05-07T16:38:42;7.70;;;5.73;;
40116;SDS011;25829;50.228;18.936;2023-05-07T16:41:52;11.43;;;7.97;;
40116;SDS011;25829;50.228;18.936;2023-05-07T16:44:57;8.50;;;6.03;;
40116;SDS011;25829;50.228;18.936;2023-05-07T16:48:18;6.47;;;5.03;;
40116;SDS011;25829;50.228;18.936;2023-05-07T16:51:21;7.00;;;4.70;;
40116;SDS011;25829;50.228;18.936;2023-05-07T16:54:34;6.00;;;4.73;;
40116;SDS011;25829;50.228;18.936;2023-05-07T16:57:38;6.17;;;4.70;;
40116;SDS011;25829;50.228;18.936;2023-05-07T17:00:48;5.93;;;4.53;;
40116;SDS011;25829;50.228;18.936;2023-05-07T17:03:49;8.10;;;5.10;;
40116;SDS011;25829;50.228;18.936;2023-05-07T17:06:53;6.00;;;4.60;;
40116;SDS011;25829;50.228;18.936;2023-05-07T17:09:54;5.97;;;4.80;;
40116;SDS011;25829;50.228;18.936;2023-05-07T17:12:57;6.47;;;5.00;;
40116;SDS011;25829;50.228;18.936;2023-05-07T17:19:49;13.37;;;8.60;;
40116;SDS011;25829;50.228;18.936;2023-05-07T17:23:21;7.33;;;5.57;;
40116;SDS011;25829;50.228;18.936;2023-05-07T17:26:27;9.57;;;6.67;;
40116;SDS011;25829;50.228;18.936;2023-05-07T17:32:43;8.53;;;6.43;;
40116;SDS011;25829;50.228;18.936;2023-05-07T17:35:44;6.90;;;4.87;;
40116;SDS011;25829;50.228;18.936;2023-05-07T17:38:45;5.10;;;4.53;;
40116;SDS011;25829;50.228;18.936;2023-05-07T17:42:03;6.43;;;5.00;;
40116;SDS011;25829;50.228;18.936;2023-05-07T17:45:07;7.67;;;4.50;;
40116;SDS011;25829;50.228;18.936;2023-05-07T17:48:10;6.10;;;4.60;;
40116;SDS011;25829;50.228;18.936;2023-05-07T17:51:11;7.60;;;5.30;;
40116;SDS011;25829;50.228;18.936;2023-05-07T17:54:12;5.07;;;4.27;;
40116;SDS011;25829;50.228;18.936;2023-05-07T18:00:56;5.57;;;4.30;;
40116;SDS011;25829;50.228;18.936;2023-05-07T18:03:56;8.17;;;5.20;;
40116;SDS011;25829;50.228;18.936;2023-05-07T18:07:00;7.43;;;4.97;;
40116;SDS011;25829;50.228;18.936;2023-05-07T18:10:04;6.63;;;4.00;;
40116;SDS011;25829;50.228;18.936;2023-05-07T18:13:06;7.57;;;5.43;;
40116;SDS011;25829;50.228;18.936;2023-05-07T18:16:12;6.20;;;4.70;;
40116;SDS011;25829;50.228;18.936;2023-05-07T18:19:33;8.00;;;5.57;;
40116;SDS011;25829;50.228;18.936;2023-05-07T18:22:34;7.93;;;4.60;;
40116;SDS011;25829;50.228;18.936;2023-05-07T18:25:35;8.30;;;6.13;;
40116;SDS011;25829;50.228;18.936;2023-05-07T18:28:43;8.33;;;5.90;;
40116;SDS011;25829;50.228;18.936;2023-05-07T18:31:46;7.53;;;5.53;;
40116;SDS011;25829;50.228;18.936;2023-05-07T18:34:47;7.20;;;4.90;;
40116;SDS011;25829;50.228;18.936;2023-05-07T18:38:01;7.90;;;5.30;;
40116;SDS011;25829;50.228;18.936;2023-05-07T18:41:09;10.30;;;5.00;;
40116;SDS011;25829;50.228;18.936;2023-05-07T18:44:10;7.37;;;5.13;;
40116;SDS011;25829;50.228;18.936;2023-05-07T18:47:11;5.50;;;4.37;;
40116;SDS011;25829;50.228;18.936;2023-05-07T18:50:15;4.17;;;3.57;;
40116;SDS011;25829;50.228;18.936;2023-05-07T18:53:35;9.00;;;4.83;;